KAAF

Apalachicola Regional-Cleve Randolph Field Airport

Apalachicola, Florida, USA
METAR KAAF 141217Z AUTO 13006G16KT 6SM RA BR OVC006 18/17 A2986 RMK AO2 LTG DSNT E P0005 T01780167
Observed Flight Rules
Dec-14 @ 12:17 UTC (24 minutes ago) Instrument Flight Rules
Wind Visibility Clouds Conditions
130° at 6 knots
 Gusting to 16 knots
6 miles
  • Overcast at 600' AGL
  • Rain
  • Mist
Temperatures Readings Precipitation
Current 18°C / 64°F
Dewpoint 17°C / 63°F
Humidity 94%
Altimeter 29.86" Hg
Pressure 1011 hPa
Elevation 5
Current Rain 0.05
METAR KAAF 141217Z AUTO 13006G16KT 6SM RA BR OVC006 18/17 A2986 RMK AO2 LTG DSNT E P0005 T01780167
Observed Flight Rules
Dec-14 @ 12:17 UTC
(24 minutes ago)
IFR
Wind Visibility
130° at 6 knots
 Gusting to 16 knots
6 miles
Clouds
  • Overcast at 600' AGL
Conditions
  • Rain
  • Mist
Temperature Dewpoint
18°C / 64°F 17°C / 63°F
Humidity Altimeter Pressure
94% 29.86" Hg 1011 hPa
Current Rain
0.05